PWSweather.com
Personal Weather Stations
Station Observations
IROGLAN40
AalgaardNO 4330

AalgaardNO 4330

Lat: 58.773, Lon: 5.846

Elevation: 326

Station Type: Davis Vanatge Pro2

Latest ConditionsUpdated 8:30:01 PM GMT+01:01 Saturday, Oct 25, 2014
Currently Today's Max Today's Min Today's Average
Temperature 51.0°F10.6°C 52.0°F11.1°C 46.7°F8.2°C 49.9°F9.9°C
Dew Point 48.5°F9.2°C 48.5°F9.2°C 43.9°F6.6°C 46.7°F8.2°C
Winds 3.0 mph E4.8 kmh E 8.2 mph SE13.2 kmh SE - 3.8 mph 6.1 kmh
Wind Gusts 5.0 mph8.0 kmh 15.0 mph24.1 kmh - -
Humidity 91% 91% 84% 89%
Pressure 29.74 in1007.1 mb 29.78 in1008.5 mb 29.73 in1006.8 mb -
Precipitation - 0.03 in0.8 mm - -
Hour Temp Dew Point Humidity Winds Wind Gusts Pressure Precip Precip Rate Daily Precip Total
08:30 PM 51.0°F10.6°C 48.5°F9.2°C 91% 3.0 mph E4.8 kmh E 5.0 mph8.0 kmh 29.74 in1007.1 mb 0.00 in0.0 mm 0.00 in/hr0.0 mm/hr 0.03 in0.8 mm
08:20 PM 51.0°F10.6°C 48.5°F9.2°C 91% 5.8 mph SE9.3 kmh SE 7.0 mph11.3 kmh 29.74 in1007.1 mb 0.00 in0.0 mm 0.00 in/hr0.0 mm/hr 0.03 in0.8 mm
08:10 PM 51.0°F10.6°C 48.5°F9.2°C 91% 4.2 mph NNW6.8 kmh NNW 6.0 mph9.7 kmh 29.74 in1007.1 mb 0.00 in0.0 mm 0.00 in/hr0.0 mm/hr 0.03 in0.8 mm
08:00 PM 51.0°F10.6°C 48.4°F9.1°C 91% 2.5 mph S4.0 kmh S 4.0 mph6.4 kmh 29.74 in1007.1 mb 0.00 in0.0 mm 0.00 in/hr0.0 mm/hr 0.03 in0.8 mm
07:50 PM 51.0°F10.6°C 48.5°F9.2°C 91% 6.6 mph SE10.6 kmh SE 10.0 mph16.1 kmh 29.74 in1007.1 mb 0.00 in0.0 mm 0.00 in/hr0.0 mm/hr 0.03 in0.8 mm
07:40 PM 51.0°F10.6°C 48.4°F9.1°C 91% 3.8 mph S6.1 kmh S 9.0 mph14.5 kmh 29.74 in1007.1 mb 0.01 in0.3 mm 0.06 in/hr1.5 mm/hr 0.03 in0.8 mm
07:30 PM 50.9°F10.5°C 48.4°F9.1°C 91% 3.4 mph SSW5.5 kmh SSW 5.0 mph8.0 kmh 29.74 in1007.1 mb 0.00 in0.0 mm 0.00 in/hr0.0 mm/hr 0.02 in0.5 mm
07:20 PM 50.9°F10.5°C 48.4°F9.1°C 91% 3.7 mph SSE6.0 kmh SSE 8.0 mph12.9 kmh 29.74 in1007.1 mb 0.00 in0.0 mm 0.00 in/hr0.0 mm/hr 0.02 in0.5 mm
07:10 PM 50.8°F10.4°C 48.3°F9.1°C 91% 5.3 mph E8.5 kmh E 14.0 mph22.5 kmh 29.74 in1007.1 mb 0.00 in0.0 mm 0.00 in/hr0.0 mm/hr 0.02 in0.5 mm
07:00 PM 50.8°F10.4°C 48.3°F9.1°C 91% 5.9 mph SE9.5 kmh SE 8.0 mph12.9 kmh 29.74 in1007.1 mb 0.00 in0.0 mm 0.00 in/hr0.0 mm/hr 0.02 in0.5 mm
06:50 PM 50.8°F10.4°C 48.3°F9.1°C 91% 4.5 mph SSE7.2 kmh SSE 11.0 mph17.7 kmh 29.75 in1007.5 mb 0.00 in0.0 mm 0.00 in/hr0.0 mm/hr 0.02 in0.5 mm
06:40 PM 50.8°F10.4°C 48.3°F9.1°C 91% 4.0 mph W6.4 kmh W 7.0 mph11.3 kmh 29.75 in1007.5 mb 0.00 in0.0 mm 0.00 in/hr0.0 mm/hr 0.02 in0.5 mm
06:30 PM 50.8°F10.4°C 48.3°F9.1°C 91% 4.7 mph SE7.6 kmh SE 9.0 mph14.5 kmh 29.75 in1007.5 mb 0.00 in0.0 mm 0.00 in/hr0.0 mm/hr 0.02 in0.5 mm
06:20 PM 50.8°F10.4°C 48.3°F9.1°C 91% 6.2 mph SE10.0 kmh SE 10.0 mph16.1 kmh 29.75 in1007.5 mb 0.00 in0.0 mm 0.00 in/hr0.0 mm/hr 0.02 in0.5 mm
06:10 PM 50.8°F10.4°C 48.0°F8.9°C 90% 3.5 mph SE5.6 kmh SE 15.0 mph24.1 kmh 29.75 in1007.5 mb 0.00 in0.0 mm 0.00 in/hr0.0 mm/hr 0.02 in0.5 mm
06:00 PM 50.7°F10.4°C 47.9°F8.8°C 90% 6.4 mph SSE10.3 kmh SSE 9.0 mph14.5 kmh 29.75 in1007.5 mb 0.00 in0.0 mm 0.00 in/hr0.0 mm/hr 0.02 in0.5 mm
05:50 PM 50.6°F10.3°C 47.8°F8.8°C 90% 5.5 mph S8.9 kmh S 11.0 mph17.7 kmh 29.75 in1007.5 mb 0.00 in0.0 mm 0.00 in/hr0.0 mm/hr 0.02 in0.5 mm
05:40 PM 50.7°F10.4°C 47.9°F8.8°C 90% 3.9 mph S6.3 kmh S 10.0 mph16.1 kmh 29.75 in1007.5 mb 0.00 in0.0 mm 0.00 in/hr0.0 mm/hr 0.02 in0.5 mm
05:30 PM 50.8°F10.4°C 47.7°F8.7°C 89% 5.4 mph S8.7 kmh S 9.0 mph14.5 kmh 29.75 in1007.5 mb 0.00 in0.0 mm 0.00 in/hr0.0 mm/hr 0.02 in0.5 mm
05:20 PM 51.0°F10.6°C 47.9°F8.8°C 89% 6.6 mph S10.6 kmh S 9.0 mph14.5 kmh 29.75 in1007.5 mb 0.00 in0.0 mm 0.00 in/hr0.0 mm/hr 0.02 in0.5 mm
05:10 PM 51.1°F10.6°C 48.0°F8.9°C 89% 5.1 mph SE8.2 kmh SE 11.0 mph17.7 kmh 29.74 in1007.1 mb 0.00 in0.0 mm 0.00 in/hr0.0 mm/hr 0.02 in0.5 mm
05:00 PM 50.8°F10.4°C 47.7°F8.7°C 89% 5.7 mph SE9.2 kmh SE 15.0 mph24.1 kmh 29.74 in1007.1 mb 0.00 in0.0 mm 0.00 in/hr0.0 mm/hr 0.02 in0.5 mm
04:50 PM 50.8°F10.4°C 47.7°F8.7°C 89% 6.7 mph S10.8 kmh S 13.0 mph20.9 kmh 29.74 in1007.1 mb 0.00 in0.0 mm 0.00 in/hr0.0 mm/hr 0.02 in0.5 mm
04:40 PM 50.8°F10.4°C 47.3°F8.5°C 88% 4.2 mph S6.8 kmh S 10.0 mph16.1 kmh 29.74 in1007.1 mb 0.00 in0.0 mm 0.00 in/hr0.0 mm/hr 0.02 in0.5 mm
04:30 PM 50.9°F10.5°C 47.5°F8.6°C 88% 4.3 mph SE6.9 kmh SE 6.0 mph9.7 kmh 29.74 in1007.1 mb 0.00 in0.0 mm 0.00 in/hr0.0 mm/hr 0.02 in0.5 mm
04:20 PM 51.1°F10.6°C 47.4°F8.6°C 87% 5.9 mph ESE9.5 kmh ESE 9.0 mph14.5 kmh 29.75 in1007.5 mb 0.00 in0.0 mm 0.00 in/hr0.0 mm/hr 0.02 in0.5 mm
04:10 PM 51.4°F10.8°C 47.6°F8.7°C 87% 6.0 mph SE9.7 kmh SE 7.0 mph11.3 kmh 29.75 in1007.5 mb 0.00 in0.0 mm 0.00 in/hr0.0 mm/hr 0.02 in0.5 mm
04:00 PM 51.4°F10.8°C 47.7°F8.7°C 87% 5.3 mph SSE8.5 kmh SSE 9.0 mph14.5 kmh 29.75 in1007.5 mb 0.00 in0.0 mm 0.00 in/hr0.0 mm/hr 0.02 in0.5 mm
03:50 PM 51.3°F10.7°C 47.6°F8.7°C 87% 7.6 mph S12.2 kmh S 14.0 mph22.5 kmh 29.76 in1007.8 mb 0.00 in0.0 mm 0.00 in/hr0.0 mm/hr 0.02 in0.5 mm
03:40 PM 51.2°F10.7°C 47.5°F8.6°C 87% 4.2 mph SE6.8 kmh SE 14.0 mph22.5 kmh 29.76 in1007.8 mb 0.00 in0.0 mm 0.00 in/hr0.0 mm/hr 0.02 in0.5 mm
03:30 PM 51.2°F10.7°C 47.5°F8.6°C 87% 4.8 mph SE7.7 kmh SE 9.0 mph14.5 kmh 29.76 in1007.8 mb 0.00 in0.0 mm 0.00 in/hr0.0 mm/hr 0.02 in0.5 mm
03:20 PM 51.3°F10.7°C 47.6°F8.7°C 87% 5.3 mph SE8.5 kmh SE 11.0 mph17.7 kmh 29.76 in1007.8 mb 0.00 in0.0 mm 0.00 in/hr0.0 mm/hr 0.02 in0.5 mm
03:10 PM 51.5°F10.8°C 47.5°F8.6°C 86% 4.7 mph SE7.6 kmh SE 8.0 mph12.9 kmh 29.76 in1007.8 mb 0.00 in0.0 mm 0.00 in/hr0.0 mm/hr 0.02 in0.5 mm
03:00 PM 51.5°F10.8°C 47.4°F8.6°C 86% 5.1 mph S8.2 kmh S 8.0 mph12.9 kmh 29.76 in1007.8 mb 0.00 in0.0 mm 0.00 in/hr0.0 mm/hr 0.02 in0.5 mm
02:50 PM 51.6°F10.9°C 47.2°F8.4°C 85% 6.8 mph SE10.9 kmh SE 10.0 mph16.1 kmh 29.77 in1008.1 mb 0.00 in0.0 mm 0.00 in/hr0.0 mm/hr 0.02 in0.5 mm
02:40 PM 51.6°F10.9°C 47.2°F8.4°C 85% 7.1 mph S11.4 kmh S 11.0 mph17.7 kmh 29.77 in1008.1 mb 0.00 in0.0 mm 0.00 in/hr0.0 mm/hr 0.02 in0.5 mm
02:30 PM 51.7°F10.9°C 47.3°F8.5°C 85% 5.1 mph SE8.2 kmh SE 11.0 mph17.7 kmh 29.77 in1008.1 mb 0.01 in0.3 mm 0.06 in/hr1.5 mm/hr 0.02 in0.5 mm
02:20 PM 51.8°F11.0°C 47.4°F8.6°C 85% 5.7 mph SE9.2 kmh SE 10.0 mph16.1 kmh 29.77 in1008.1 mb 0.00 in0.0 mm 0.00 in/hr0.0 mm/hr 0.02 in0.5 mm
02:10 PM 51.8°F11.0°C 47.4°F8.6°C 85% 3.5 mph SE5.6 kmh SE 10.0 mph16.1 kmh 29.77 in1008.1 mb 0.00 in0.0 mm 0.00 in/hr0.0 mm/hr 0.02 in0.5 mm
02:00 PM 51.7°F10.9°C 47.3°F8.5°C 85% 7.3 mph SW11.7 kmh SW 11.0 mph17.7 kmh 29.77 in1008.1 mb 0.00 in0.0 mm 0.00 in/hr0.0 mm/hr 0.02 in0.5 mm
01:50 PM 51.9°F11.1°C 47.5°F8.6°C 85% 6.7 mph SE10.8 kmh SE 12.0 mph19.3 kmh 29.77 in1008.1 mb 0.00 in0.0 mm 0.00 in/hr0.0 mm/hr 0.02 in0.5 mm
01:40 PM 51.9°F11.1°C 47.5°F8.6°C 85% 5.8 mph SE9.3 kmh SE 9.0 mph14.5 kmh 29.77 in1008.1 mb 0.00 in0.0 mm 0.00 in/hr0.0 mm/hr 0.02 in0.5 mm
01:30 PM 51.8°F11.0°C 47.1°F8.4°C 84% 3.7 mph S6.0 kmh S 7.0 mph11.3 kmh 29.77 in1008.1 mb 0.00 in0.0 mm 0.00 in/hr0.0 mm/hr 0.02 in0.5 mm
01:20 PM 51.9°F11.1°C 47.2°F8.4°C 84% 6.8 mph SE10.9 kmh SE 11.0 mph17.7 kmh 29.77 in1008.1 mb 0.00 in0.0 mm 0.00 in/hr0.0 mm/hr 0.02 in0.5 mm
01:10 PM 51.9°F11.1°C 47.2°F8.4°C 84% 7.1 mph SE11.4 kmh SE 14.0 mph22.5 kmh 29.77 in1008.1 mb 0.00 in0.0 mm 0.00 in/hr0.0 mm/hr 0.02 in0.5 mm
01:00 PM 51.9°F11.1°C 47.2°F8.4°C 84% 4.0 mph S6.4 kmh S 4.0 mph6.4 kmh 29.77 in1008.1 mb 0.00 in0.0 mm 0.00 in/hr0.0 mm/hr 0.02 in0.5 mm
12:50 PM 51.8°F11.0°C 47.4°F8.6°C 85% 7.6 mph SE12.2 kmh SE 11.0 mph17.7 kmh 29.78 in1008.5 mb 0.00 in0.0 mm 0.00 in/hr0.0 mm/hr 0.02 in0.5 mm
12:40 PM 51.6°F10.9°C 47.2°F8.4°C 85% 7.2 mph SE11.6 kmh SE 9.0 mph14.5 kmh 29.78 in1008.5 mb 0.00 in0.0 mm 0.00 in/hr0.0 mm/hr 0.02 in0.5 mm
12:30 PM 51.7°F10.9°C 47.6°F8.7°C 86% 8.1 mph SE13.0 kmh SE 13.0 mph20.9 kmh 29.78 in1008.5 mb 0.00 in0.0 mm 0.00 in/hr0.0 mm/hr 0.02 in0.5 mm
12:20 PM 51.6°F10.9°C 47.2°F8.4°C 85% 4.5 mph SSE7.2 kmh SSE 9.0 mph14.5 kmh 29.78 in1008.5 mb 0.00 in0.0 mm 0.00 in/hr0.0 mm/hr 0.02 in0.5 mm
12:10 PM 51.9°F11.1°C 47.5°F8.6°C 85% 5.8 mph SE9.3 kmh SE 8.0 mph12.9 kmh 29.78 in1008.5 mb 0.00 in0.0 mm 0.00 in/hr0.0 mm/hr 0.02 in0.5 mm
12:00 PM 52.0°F11.1°C 48.0°F8.9°C 86% 4.8 mph SE7.7 kmh SE 11.0 mph17.7 kmh 29.78 in1008.5 mb 0.00 in0.0 mm 0.00 in/hr0.0 mm/hr 0.02 in0.5 mm
11:50 AM 51.4°F10.8°C 47.3°F8.5°C 86% 5.0 mph SE8.0 kmh SE 8.0 mph12.9 kmh 29.78 in1008.5 mb 0.00 in0.0 mm 0.00 in/hr0.0 mm/hr 0.02 in0.5 mm
11:40 AM 51.1°F10.6°C 47.4°F8.6°C 87% 8.2 mph SE13.2 kmh SE 15.0 mph24.1 kmh 29.78 in1008.5 mb 0.00 in0.0 mm 0.00 in/hr0.0 mm/hr 0.02 in0.5 mm
11:30 AM 51.3°F10.7°C 47.9°F8.8°C 88% 4.7 mph SE7.6 kmh SE 8.0 mph12.9 kmh 29.78 in1008.5 mb 0.00 in0.0 mm 0.00 in/hr0.0 mm/hr 0.02 in0.5 mm
11:20 AM 50.4°F10.2°C 47.3°F8.5°C 89% 3.8 mph SE6.1 kmh SE 5.0 mph8.0 kmh 29.78 in1008.5 mb 0.00 in0.0 mm 0.00 in/hr0.0 mm/hr 0.02 in0.5 mm
11:10 AM 50.6°F10.3°C 47.4°F8.6°C 89% 5.4 mph SE8.7 kmh SE 7.0 mph11.3 kmh 29.78 in1008.5 mb 0.00 in0.0 mm 0.00 in/hr0.0 mm/hr 0.02 in0.5 mm
11:00 AM 50.3°F10.2°C 47.2°F8.4°C 89% 6.2 mph ESE10.0 kmh ESE 8.0 mph12.9 kmh 29.78 in1008.5 mb 0.00 in0.0 mm 0.00 in/hr0.0 mm/hr 0.02 in0.5 mm
10:50 AM 50.3°F10.2°C 47.2°F8.4°C 89% 2.4 mph SSE3.9 kmh SSE 5.0 mph8.0 kmh 29.78 in1008.5 mb 0.00 in0.0 mm 0.00 in/hr0.0 mm/hr 0.02 in0.5 mm
10:40 AM 50.5°F10.3°C 47.4°F8.6°C 89% 5.2 mph SE8.4 kmh SE 7.0 mph11.3 kmh 29.78 in1008.5 mb 0.00 in0.0 mm 0.00 in/hr0.0 mm/hr 0.02 in0.5 mm
10:30 AM 50.5°F10.3°C 47.4°F8.6°C 89% 3.6 mph SE5.8 kmh SE 5.0 mph8.0 kmh 29.78 in1008.5 mb 0.00 in0.0 mm 0.00 in/hr0.0 mm/hr 0.02 in0.5 mm
10:20 AM 50.2°F10.1°C 46.8°F8.2°C 88% 4.0 mph SSE6.4 kmh SSE 7.0 mph11.3 kmh 29.78 in1008.5 mb 0.00 in0.0 mm 0.00 in/hr0.0 mm/hr 0.02 in0.5 mm
10:10 AM 50.3°F10.2°C 47.2°F8.4°C 89% 3.4 mph SE5.5 kmh SE 6.0 mph9.7 kmh 29.78 in1008.5 mb 0.00 in0.0 mm 0.00 in/hr0.0 mm/hr 0.02 in0.5 mm
10:00 AM 50.3°F10.2°C 47.2°F8.4°C 89% 3.0 mph SSE4.8 kmh SSE 5.0 mph8.0 kmh 29.78 in1008.5 mb 0.00 in0.0 mm 0.00 in/hr0.0 mm/hr 0.02 in0.5 mm
09:50 AM 49.8°F9.9°C 46.7°F8.2°C 89% 3.6 mph SE5.8 kmh SE 5.0 mph8.0 kmh 29.78 in1008.5 mb 0.00 in0.0 mm 0.00 in/hr0.0 mm/hr 0.02 in0.5 mm
09:40 AM 49.7°F9.8°C 46.9°F8.3°C 90% 2.1 mph SE3.4 kmh SE 3.0 mph4.8 kmh 29.78 in1008.5 mb 0.00 in0.0 mm 0.00 in/hr0.0 mm/hr 0.02 in0.5 mm
09:30 AM 49.5°F9.7°C 46.7°F8.2°C 90% 3.7 mph SSE6.0 kmh SSE 7.0 mph11.3 kmh 29.78 in1008.5 mb 0.00 in0.0 mm 0.00 in/hr0.0 mm/hr 0.02 in0.5 mm
09:20 AM 49.3°F9.6°C 46.5°F8.1°C 90% 2.7 mph SSE4.3 kmh SSE 5.0 mph8.0 kmh 29.78 in1008.5 mb 0.00 in0.0 mm 0.00 in/hr0.0 mm/hr 0.02 in0.5 mm
09:10 AM 49.1°F9.5°C 46.2°F7.9°C 90% 3.0 mph SSE4.8 kmh SSE 5.0 mph8.0 kmh 29.78 in1008.5 mb 0.00 in0.0 mm 0.00 in/hr0.0 mm/hr 0.02 in0.5 mm
09:00 AM 48.8°F9.3°C 46.0°F7.8°C 90% 2.7 mph SE4.3 kmh SE 5.0 mph8.0 kmh 29.78 in1008.5 mb 0.00 in0.0 mm 0.00 in/hr0.0 mm/hr 0.02 in0.5 mm
08:50 AM 48.7°F9.3°C 46.2°F7.9°C 91% 3.9 mph E6.3 kmh E 7.0 mph11.3 kmh 29.78 in1008.5 mb 0.00 in0.0 mm 0.00 in/hr0.0 mm/hr 0.02 in0.5 mm
08:40 AM 48.5°F9.2°C 46.0°F7.8°C 91% 2.7 mph ESE4.3 kmh ESE 5.0 mph8.0 kmh 29.78 in1008.5 mb 0.00 in0.0 mm 0.00 in/hr0.0 mm/hr 0.02 in0.5 mm
08:30 AM 48.4°F9.1°C 45.9°F7.7°C 91% 4.0 mph SE6.4 kmh SE 7.0 mph11.3 kmh 29.77 in1008.1 mb 0.00 in0.0 mm 0.00 in/hr0.0 mm/hr 0.02 in0.5 mm
08:20 AM 48.2°F9.0°C 45.6°F7.6°C 91% 3.7 mph SE6.0 kmh SE 7.0 mph11.3 kmh 29.77 in1008.1 mb 0.00 in0.0 mm 0.00 in/hr0.0 mm/hr 0.02 in0.5 mm
08:10 AM 47.8°F8.8°C 45.3°F7.4°C 91% 2.6 mph ESE4.2 kmh ESE 5.0 mph8.0 kmh 29.77 in1008.1 mb 0.00 in0.0 mm 0.00 in/hr0.0 mm/hr 0.02 in0.5 mm
08:00 AM 47.7°F8.7°C 45.2°F7.3°C 91% 2.4 mph ESE3.9 kmh ESE 3.0 mph4.8 kmh 29.76 in1007.8 mb 0.00 in0.0 mm 0.00 in/hr0.0 mm/hr 0.02 in0.5 mm
07:50 AM 47.8°F8.8°C 45.3°F7.4°C 91% 1.8 mph ESE2.9 kmh ESE 3.0 mph4.8 kmh 29.76 in1007.8 mb 0.00 in0.0 mm 0.00 in/hr0.0 mm/hr 0.02 in0.5 mm
07:40 AM 47.7°F8.7°C 45.2°F7.3°C 91% 1.6 mph SE2.6 kmh SE 3.0 mph4.8 kmh 29.76 in1007.8 mb 0.00 in0.0 mm 0.00 in/hr0.0 mm/hr 0.02 in0.5 mm
07:30 AM 47.5°F8.6°C 45.0°F7.2°C 91% 1.9 mph SE3.1 kmh SE 5.0 mph8.0 kmh 29.76 in1007.8 mb 0.00 in0.0 mm 0.00 in/hr0.0 mm/hr 0.02 in0.5 mm
07:20 AM 47.3°F8.5°C 44.8°F7.1°C 91% 2.9 mph ESE4.7 kmh ESE 5.0 mph8.0 kmh 29.76 in1007.8 mb 0.00 in0.0 mm 0.00 in/hr0.0 mm/hr 0.02 in0.5 mm
07:10 AM 47.0°F8.3°C 44.5°F6.9°C 91% 2.2 mph ESE3.5 kmh ESE 4.0 mph6.4 kmh 29.75 in1007.5 mb 0.00 in0.0 mm 0.00 in/hr0.0 mm/hr 0.02 in0.5 mm
07:00 AM 46.8°F8.2°C 44.3°F6.8°C 91% 2.4 mph SE3.9 kmh SE 5.0 mph8.0 kmh 29.75 in1007.5 mb 0.00 in0.0 mm 0.00 in/hr0.0 mm/hr 0.02 in0.5 mm
06:50 AM 46.7°F8.2°C 43.9°F6.6°C 90% 2.3 mph ESE3.7 kmh ESE 5.0 mph8.0 kmh 29.75 in1007.5 mb 0.00 in0.0 mm 0.00 in/hr0.0 mm/hr 0.02 in0.5 mm
06:40 AM 46.9°F8.3°C 44.1°F6.7°C 90% 1.4 mph ESE2.3 kmh ESE 5.0 mph8.0 kmh 29.75 in1007.5 mb 0.00 in0.0 mm 0.00 in/hr0.0 mm/hr 0.02 in0.5 mm
06:30 AM 47.1°F8.4°C 44.3°F6.8°C 90% 2.8 mph ESE4.5 kmh ESE 5.0 mph8.0 kmh 29.74 in1007.1 mb 0.00 in0.0 mm 0.00 in/hr0.0 mm/hr 0.02 in0.5 mm
06:20 AM 47.3°F8.5°C 44.5°F6.9°C 90% 1.7 mph ESE2.7 kmh ESE 5.0 mph8.0 kmh 29.74 in1007.1 mb 0.00 in0.0 mm 0.00 in/hr0.0 mm/hr 0.02 in0.5 mm
06:10 AM 47.5°F8.6°C 44.7°F7.1°C 90% 1.5 mph ESE2.4 kmh ESE 2.0 mph3.2 kmh 29.74 in1007.1 mb 0.00 in0.0 mm 0.00 in/hr0.0 mm/hr 0.02 in0.5 mm
06:00 AM 47.7°F8.7°C 44.9°F7.2°C 90% 1.9 mph SE3.1 kmh SE 3.0 mph4.8 kmh 29.74 in1007.1 mb 0.00 in0.0 mm 0.00 in/hr0.0 mm/hr 0.02 in0.5 mm
05:50 AM 47.7°F8.7°C 44.9°F7.2°C 90% 1.8 mph ESE2.9 kmh ESE 3.0 mph4.8 kmh 29.74 in1007.1 mb 0.00 in0.0 mm 0.00 in/hr0.0 mm/hr 0.02 in0.5 mm
05:40 AM 47.7°F8.7°C 44.9°F7.2°C 90% 1.9 mph ESE3.1 kmh ESE 3.0 mph4.8 kmh 29.74 in1007.1 mb 0.00 in0.0 mm 0.00 in/hr0.0 mm/hr 0.02 in0.5 mm
05:30 AM 47.6°F8.7°C 44.8°F7.1°C 90% 2.7 mph SE4.3 kmh SE 4.0 mph6.4 kmh 29.74 in1007.1 mb 0.00 in0.0 mm 0.00 in/hr0.0 mm/hr 0.02 in0.5 mm
05:20 AM 47.6°F8.7°C 44.8°F7.1°C 90% 2.5 mph SE4.0 kmh SE 5.0 mph8.0 kmh 29.74 in1007.1 mb 0.00 in0.0 mm 0.00 in/hr0.0 mm/hr 0.02 in0.5 mm
05:10 AM 47.6°F8.7°C 44.8°F7.1°C 90% 2.4 mph SE3.9 kmh SE 5.0 mph8.0 kmh 29.74 in1007.1 mb 0.00 in0.0 mm 0.00 in/hr0.0 mm/hr 0.02 in0.5 mm
05:00 AM 47.7°F8.7°C 44.9°F7.2°C 90% 1.6 mph E2.6 kmh E 3.0 mph4.8 kmh 29.74 in1007.1 mb 0.00 in0.0 mm 0.00 in/hr0.0 mm/hr 0.02 in0.5 mm
04:50 AM 47.8°F8.8°C 45.0°F7.2°C 90% 1.7 mph ESE2.7 kmh ESE 5.0 mph8.0 kmh 29.74 in1007.1 mb 0.00 in0.0 mm 0.00 in/hr0.0 mm/hr 0.02 in0.5 mm
04:40 AM 48.1°F8.9°C 45.3°F7.4°C 90% 1.3 mph E2.1 kmh E 2.0 mph3.2 kmh 29.74 in1007.1 mb 0.00 in0.0 mm 0.00 in/hr0.0 mm/hr 0.02 in0.5 mm
04:30 AM 48.2°F9.0°C 45.4°F7.4°C 90% 3.9 mph SE6.3 kmh SE 6.0 mph9.7 kmh 29.74 in1007.1 mb 0.00 in0.0 mm 0.00 in/hr0.0 mm/hr 0.02 in0.5 mm
04:20 AM 48.3°F9.1°C 45.5°F7.5°C 90% 2.1 mph SE3.4 kmh SE 3.0 mph4.8 kmh 29.74 in1007.1 mb 0.00 in0.0 mm 0.00 in/hr0.0 mm/hr 0.02 in0.5 mm
04:10 AM 48.6°F9.2°C 45.8°F7.7°C 90% 2.1 mph ESE3.4 kmh ESE 5.0 mph8.0 kmh 29.74 in1007.1 mb 0.00 in0.0 mm 0.00 in/hr0.0 mm/hr 0.02 in0.5 mm
04:00 AM 48.9°F9.4°C 46.1°F7.8°C 90% 3.5 mph SE5.6 kmh SE 7.0 mph11.3 kmh 29.74 in1007.1 mb 0.00 in0.0 mm 0.00 in/hr0.0 mm/hr 0.02 in0.5 mm
03:50 AM 49.0°F9.4°C 46.5°F8.1°C 91% 1.9 mph SE3.1 kmh SE 5.0 mph8.0 kmh 29.73 in1006.8 mb 0.01 in0.3 mm 0.06 in/hr1.5 mm/hr 0.02 in0.5 mm
03:40 AM 48.9°F9.4°C 46.1°F7.8°C 90% 2.7 mph SSE4.3 kmh SSE 4.0 mph6.4 kmh 29.73 in1006.8 mb 0.00 in0.0 mm 0.00 in/hr0.0 mm/hr 0.01 in0.3 mm
03:30 AM 48.9°F9.4°C 46.1°F7.8°C 90% 0.5 mph SE0.8 kmh SE 1.0 mph1.6 kmh 29.74 in1007.1 mb 0.00 in0.0 mm 0.00 in/hr0.0 mm/hr 0.01 in0.3 mm
03:20 AM 49.0°F9.4°C 46.2°F7.9°C 90% 0.8 mph SE1.3 kmh SE 2.0 mph3.2 kmh 29.74 in1007.1 mb 0.00 in0.0 mm 0.00 in/hr0.0 mm/hr 0.01 in0.3 mm
03:10 AM 49.0°F9.4°C 46.2°F7.9°C 90% 2.4 mph E3.9 kmh E 4.0 mph6.4 kmh 29.73 in1006.8 mb 0.00 in0.0 mm 0.00 in/hr0.0 mm/hr 0.01 in0.3 mm
03:00 AM 49.0°F9.4°C 46.2°F7.9°C 90% 1.0 mph E1.6 kmh E 1.0 mph1.6 kmh 29.73 in1006.8 mb 0.00 in0.0 mm 0.00 in/hr0.0 mm/hr 0.01 in0.3 mm
02:50 AM 49.1°F9.5°C 46.0°F7.8°C 89% Calm Calm -- 29.73 in1006.8 mb 0.00 in0.0 mm 0.00 in/hr0.0 mm/hr 0.01 in0.3 mm
02:40 AM 49.2°F9.6°C 46.1°F7.8°C 89% 0.4 mph ESE0.6 kmh ESE 1.0 mph1.6 kmh 29.73 in1006.8 mb 0.00 in0.0 mm 0.00 in/hr0.0 mm/hr 0.01 in0.3 mm
02:30 AM 49.3°F9.6°C 46.2°F7.9°C 89% 1.2 mph ESE1.9 kmh ESE 2.0 mph3.2 kmh 29.73 in1006.8 mb 0.00 in0.0 mm 0.00 in/hr0.0 mm/hr 0.01 in0.3 mm
02:20 AM 49.4°F9.7°C 46.3°F7.9°C 89% 1.5 mph ESE2.4 kmh ESE 3.0 mph4.8 kmh 29.73 in1006.8 mb 0.01 in0.3 mm 0.06 in/hr1.5 mm/hr 0.01 in0.3 mm
02:10 AM 49.3°F9.6°C 46.2°F7.9°C 89% 2.7 mph SE4.3 kmh SE 5.0 mph8.0 kmh 29.73 in1006.8 mb 0.00 in0.0 mm 0.00 in/hr0.0 mm/hr 0.00 in0.0 mm
02:00 AM 49.4°F9.7°C 46.0°F7.8°C 88% 2.2 mph ESE3.5 kmh ESE 3.0 mph4.8 kmh 29.73 in1006.8 mb 0.00 in0.0 mm 0.00 in/hr0.0 mm/hr 0.00 in0.0 mm
01:50 AM 49.3°F9.6°C 45.9°F7.7°C 88% 1.7 mph ESE2.7 kmh ESE 5.0 mph8.0 kmh 29.73 in1006.8 mb 0.00 in0.0 mm 0.00 in/hr0.0 mm/hr 0.00 in0.0 mm
01:40 AM 49.1°F9.5°C 45.7°F7.6°C 88% 2.0 mph ESE3.2 kmh ESE 3.0 mph4.8 kmh 29.74 in1007.1 mb 0.00 in0.0 mm 0.00 in/hr0.0 mm/hr 0.00 in0.0 mm
01:30 AM 49.1°F9.5°C 45.7°F7.6°C 88% 1.8 mph SE2.9 kmh SE 3.0 mph4.8 kmh 29.73 in1006.8 mb 0.00 in0.0 mm 0.00 in/hr0.0 mm/hr 0.00 in0.0 mm
01:20 AM 49.1°F9.5°C 45.7°F7.6°C 88% 1.9 mph ESE3.1 kmh ESE 3.0 mph4.8 kmh 29.74 in1007.1 mb 0.00 in0.0 mm 0.00 in/hr0.0 mm/hr 0.00 in0.0 mm
01:10 AM 49.3°F9.6°C 45.9°F7.7°C 88% 2.6 mph ESE4.2 kmh ESE 3.0 mph4.8 kmh 29.74 in1007.1 mb 0.00 in0.0 mm 0.00 in/hr0.0 mm/hr 0.00 in0.0 mm
01:00 AM 49.4°F9.7°C 46.0°F7.8°C 88% 2.5 mph SE4.0 kmh SE 5.0 mph8.0 kmh 29.74 in1007.1 mb 0.00 in0.0 mm 0.00 in/hr0.0 mm/hr 0.00 in0.0 mm
12:50 AM 49.7°F9.8°C 46.3°F7.9°C 88% 3.1 mph SE5.0 kmh SE 6.0 mph9.7 kmh 29.73 in1006.8 mb 0.00 in0.0 mm 0.00 in/hr0.0 mm/hr 0.00 in0.0 mm
12:40 AM 49.9°F9.9°C 46.5°F8.1°C 88% 2.9 mph SE4.7 kmh SE 5.0 mph8.0 kmh 29.74 in1007.1 mb 0.00 in0.0 mm 0.00 in/hr0.0 mm/hr 0.00 in0.0 mm
12:30 AM 49.9°F9.9°C 46.5°F8.1°C 88% 2.2 mph SSE3.5 kmh SSE 4.0 mph6.4 kmh 29.74 in1007.1 mb 0.00 in0.0 mm 0.00 in/hr0.0 mm/hr 0.00 in0.0 mm
12:20 AM 49.9°F9.9°C 46.5°F8.1°C 88% 3.1 mph SSE5.0 kmh SSE 4.0 mph6.4 kmh 29.74 in1007.1 mb 0.00 in0.0 mm 0.00 in/hr0.0 mm/hr 0.00 in0.0 mm
12:10 AM 49.9°F9.9°C 46.5°F8.1°C 88% 2.3 mph SE3.7 kmh SE 5.0 mph8.0 kmh 29.74 in1007.1 mb 0.00 in0.0 mm 0.00 in/hr0.0 mm/hr 0.00 in0.0 mm
12:00 AM 50.0°F10.0°C 46.9°F8.3°C 89% 3.4 mph E5.5 kmh E 8.0 mph12.9 kmh 29.75 in1007.5 mb 0.00 in0.0 mm 0.00 in/hr0.0 mm/hr 0.00 in0.0 mm